createdAt,value
2023-04-10T00:00:13.459Z,30.97
2023-04-10T00:02:42.755Z,28.70
2023-04-10T00:05:12.536Z,28.80
2023-04-10T00:07:40.754Z,29.83
2023-04-10T00:10:09.313Z,34.70
2023-04-10T00:12:37.949Z,25.43
2023-04-10T00:15:06.546Z,28.60
2023-04-10T00:17:34.425Z,27.33
2023-04-10T00:20:02.401Z,25.87
2023-04-10T00:22:32.808Z,25.53
2023-04-10T00:25:00.680Z,25.77
2023-04-10T00:27:28.575Z,25.50
2023-04-10T00:29:56.438Z,27.93
2023-04-10T00:32:24.752Z,26.57
2023-04-10T00:34:53.061Z,25.50
2023-04-10T00:37:21.472Z,24.30
2023-04-10T00:39:50.710Z,24.10
2023-04-10T00:42:18.590Z,25.17
2023-04-10T00:44:46.565Z,23.50
2023-04-10T00:47:15.914Z,22.40
2023-04-10T00:49:45.020Z,28.23
2023-04-10T00:52:13.061Z,24.20
2023-04-10T00:54:41.355Z,28.30
2023-04-10T00:57:11.072Z,25.10
2023-04-10T00:59:40.202Z,24.77
2023-04-10T01:02:08.258Z,24.93
2023-04-10T01:04:36.326Z,23.07
2023-04-10T01:07:10.699Z,15.33
2023-04-10T01:09:48.412Z,20.90
2023-04-10T01:12:34.944Z,22.70
2023-04-10T01:15:07.525Z,21.40
2023-04-10T01:17:43.583Z,22.30
2023-04-10T01:20:14.693Z,22.73
2023-04-10T01:22:52.877Z,21.73
2023-04-10T01:25:39.473Z,24.63
2023-04-10T01:28:22.843Z,20.50
2023-04-10T01:30:54.933Z,24.23
2023-04-10T01:33:40.778Z,21.47
2023-04-10T01:36:11.090Z,25.87
2023-04-10T01:38:43.558Z,24.00
2023-04-10T01:41:12.030Z,26.13
2023-04-10T01:43:42.618Z,23.23
2023-04-10T01:46:13.780Z,20.57
2023-04-10T01:48:42.655Z,23.67
2023-04-10T01:51:11.881Z,20.80
2023-04-10T01:53:40.784Z,22.93
2023-04-10T01:56:10.149Z,26.93
2023-04-10T01:58:44.833Z,23.13
2023-04-10T02:01:29.155Z,24.43
2023-04-10T02:03:58.834Z,21.93
2023-04-10T02:06:37.287Z,24.97
2023-04-10T02:09:13.628Z,25.57
2023-04-10T02:11:48.351Z,23.00
2023-04-10T02:14:21.644Z,23.90
2023-04-10T02:16:54.367Z,20.57
2023-04-10T02:19:24.600Z,21.20
2023-04-10T02:21:53.573Z,24.53
2023-04-10T02:24:22.183Z,22.97
2023-04-10T02:26:51.938Z,24.90
2023-04-10T02:29:20.128Z,22.23
2023-04-10T02:31:48.188Z,18.40
2023-04-10T02:34:17.527Z,22.10
2023-04-10T02:36:45.402Z,23.90
2023-04-10T02:39:13.906Z,23.17
2023-04-10T02:41:51.011Z,29.23
2023-04-10T02:44:19.282Z,26.40
2023-04-10T02:46:47.293Z,25.33
2023-04-10T02:49:17.791Z,26.73
2023-04-10T02:51:46.020Z,23.53
2023-04-10T02:54:13.976Z,24.03
2023-04-10T02:56:43.869Z,25.93
2023-04-10T02:59:12.190Z,22.50
2023-04-10T03:01:40.816Z,20.93
2023-04-10T03:04:09.301Z,23.27
2023-04-10T03:06:41.713Z,21.07
2023-04-10T03:09:09.833Z,22.23
2023-04-10T03:11:37.794Z,21.27
2023-04-10T03:14:05.829Z,24.37
2023-04-10T03:16:33.944Z,22.80
2023-04-10T03:19:04.472Z,24.27
2023-04-10T03:21:32.892Z,21.50
2023-04-10T03:24:02.768Z,21.93
2023-04-10T03:26:30.752Z,21.87
2023-04-10T03:28:58.943Z,22.03
2023-04-10T03:31:26.802Z,23.30
2023-04-10T03:33:58.601Z,24.17
2023-04-10T03:36:27.549Z,22.90
2023-04-10T03:38:55.432Z,22.30
2023-04-10T03:41:25.727Z,23.63
2023-04-10T03:43:54.424Z,24.17
2023-04-10T03:46:23.072Z,23.10
2023-04-10T03:48:54.114Z,22.80
2023-04-10T03:51:23.480Z,25.97
2023-04-10T03:53:52.253Z,19.83
2023-04-10T03:56:20.426Z,22.67
2023-04-10T03:58:49.901Z,21.27
2023-04-10T04:01:17.788Z,21.37
2023-04-10T04:03:59.125Z,20.90
2023-04-10T04:06:48.634Z,24.13
2023-04-10T04:09:34.919Z,21.90
2023-04-10T04:12:19.393Z,24.53
2023-04-10T04:15:14.735Z,19.23
2023-04-10T04:17:55.881Z,23.90
2023-04-10T04:20:42.749Z,24.30
2023-04-10T04:23:43.239Z,21.80
2023-04-10T04:26:24.831Z,20.60
2023-04-10T04:29:11.607Z,20.40
2023-04-10T04:31:55.130Z,19.60
2023-04-10T04:34:48.789Z,22.03
2023-04-10T04:37:31.167Z,21.77
2023-04-10T04:40:17.553Z,22.97
2023-04-10T04:43:05.704Z,20.90
2023-04-10T04:45:59.904Z,24.33
2023-04-10T04:48:51.972Z,36.83
2023-04-10T04:51:25.836Z,21.10
2023-04-10T04:54:13.053Z,22.80
2023-04-10T04:56:59.393Z,23.40
2023-04-10T04:59:50.399Z,22.33
2023-04-10T05:02:36.792Z,20.17
2023-04-10T05:05:23.450Z,19.83
2023-04-10T05:08:10.734Z,24.80
2023-04-10T05:11:04.711Z,21.60
2023-04-10T05:13:51.281Z,21.87
2023-04-10T05:16:37.747Z,23.70
2023-04-10T05:19:41.587Z,24.20
2023-04-10T05:22:19.218Z,21.20
2023-04-10T05:25:13.162Z,15.90
2023-04-10T05:27:59.162Z,22.17
2023-04-10T05:30:59.248Z,23.33
2023-04-10T05:33:39.100Z,22.00
2023-04-10T05:36:19.139Z,23.33
2023-04-10T05:39:15.679Z,22.90
2023-04-10T05:42:13.382Z,23.27
2023-04-10T05:44:51.181Z,21.13
2023-04-10T05:47:48.295Z,25.60
2023-04-10T05:50:39.250Z,24.03
2023-04-10T05:53:14.446Z,27.67
2023-04-10T05:56:10.021Z,25.63
2023-04-10T05:58:58.267Z,23.63
2023-04-10T06:01:41.847Z,24.07
2023-04-10T06:04:10.390Z,22.37
2023-04-10T06:06:41.953Z,23.40
2023-04-10T06:09:11.545Z,25.20
2023-04-10T06:11:41.095Z,22.83
2023-04-10T06:14:09.684Z,26.00
2023-04-10T06:16:43.229Z,27.77
2023-04-10T06:19:11.240Z,24.23
2023-04-10T06:21:39.179Z,22.87
2023-04-10T06:24:07.751Z,24.50
2023-04-10T06:26:35.722Z,26.10
2023-04-10T06:29:06.196Z,25.07
2023-04-10T06:31:35.453Z,25.83
2023-04-10T06:34:03.689Z,28.17
2023-04-10T06:36:33.012Z,29.77
2023-04-10T06:39:05.766Z,26.20
2023-04-10T06:41:34.143Z,23.70
2023-04-10T06:44:18.418Z,26.77
2023-04-10T06:46:46.544Z,28.27
2023-04-10T06:49:14.416Z,29.37
2023-04-10T06:51:42.386Z,28.47
2023-04-10T06:54:10.186Z,29.37
2023-04-10T06:56:38.077Z,28.70
2023-04-10T06:59:06.320Z,27.07
2023-04-10T07:01:35.844Z,34.87
2023-04-10T07:04:03.877Z,31.37
2023-04-10T07:06:32.389Z,28.57
2023-04-10T07:09:00.385Z,31.67
2023-04-10T07:11:28.251Z,31.10
2023-04-10T07:13:58.424Z,28.53
2023-04-10T07:16:27.619Z,29.43
2023-04-10T07:18:57.269Z,32.87
2023-04-10T07:21:27.156Z,32.50
2023-04-10T07:23:55.474Z,30.03
2023-04-10T07:26:23.376Z,32.63
2023-04-10T07:28:51.339Z,38.07
2023-04-10T07:31:19.370Z,31.67
2023-04-10T07:33:47.636Z,27.07
2023-04-10T07:36:17.105Z,32.87
2023-04-10T07:38:45.036Z,30.30
2023-04-10T07:41:13.110Z,31.47
2023-04-10T07:43:41.502Z,32.23
2023-04-10T07:46:09.357Z,28.80
2023-04-10T07:48:37.310Z,35.93
2023-04-10T07:51:09.154Z,30.63
2023-04-10T07:53:38.498Z,32.00
2023-04-10T07:56:07.524Z,31.17
2023-04-10T07:58:36.057Z,34.50
2023-04-10T08:01:04.002Z,31.30
2023-04-10T08:03:32.138Z,30.23
2023-04-10T08:06:00.146Z,32.63
2023-04-10T08:08:28.091Z,28.10
2023-04-10T08:10:57.349Z,31.47
2023-04-10T08:13:25.274Z,31.90
2023-04-10T08:15:53.155Z,30.17
2023-04-10T08:18:21.244Z,32.13
2023-04-10T08:20:49.196Z,30.80
2023-04-10T08:23:20.721Z,28.90
2023-04-10T08:25:49.083Z,31.87
2023-04-10T08:28:19.512Z,31.33
2023-04-10T08:30:47.546Z,33.60
2023-04-10T08:33:15.522Z,30.70
2023-04-10T08:35:43.427Z,31.37
2023-04-10T08:38:13.982Z,30.10
2023-04-10T08:40:42.800Z,32.13
2023-04-10T08:43:14.279Z,30.10
2023-04-10T08:45:43.705Z,29.67
2023-04-10T08:48:12.651Z,35.67
2023-04-10T08:50:44.189Z,33.30
2023-04-10T08:53:13.925Z,28.27
2023-04-10T08:55:42.799Z,23.13
2023-04-10T08:58:13.732Z,27.37
2023-04-10T09:00:42.973Z,29.27
2023-04-10T09:03:14.182Z,27.30
2023-04-10T09:05:42.490Z,27.47
2023-04-10T09:08:12.129Z,27.87
2023-04-10T09:10:40.271Z,29.70
2023-04-10T09:13:08.140Z,22.80
2023-04-10T09:15:58.303Z,23.30
2023-04-10T09:18:42.656Z,25.80
2023-04-10T09:21:12.026Z,22.80
2023-04-10T09:23:40.470Z,24.23
2023-04-10T09:26:24.592Z,24.73
2023-04-10T09:29:02.980Z,24.23
2023-04-10T09:31:37.258Z,31.17
2023-04-10T09:34:13.130Z,21.63
2023-04-10T09:36:44.687Z,19.70
2023-04-10T09:39:13.491Z,22.90
2023-04-10T09:41:52.723Z,20.00
2023-04-10T09:44:30.879Z,17.73
2023-04-10T09:47:00.865Z,21.40
2023-04-10T09:49:28.811Z,19.37
2023-04-10T09:51:56.658Z,19.80
2023-04-10T09:54:38.013Z,21.40
2023-04-10T09:57:08.379Z,19.43
2023-04-10T09:59:41.210Z,16.27
2023-04-10T10:02:12.397Z,19.03
2023-04-10T10:04:43.582Z,16.37
2023-04-10T10:07:11.478Z,19.00
2023-04-10T10:09:39.678Z,19.37
2023-04-10T10:12:09.967Z,15.83
2023-04-10T10:14:45.600Z,16.87
2023-04-10T10:17:17.692Z,14.43
2023-04-10T10:19:54.758Z,18.73
2023-04-10T10:22:24.606Z,15.33
2023-04-10T10:24:56.636Z,16.33
2023-04-10T10:27:26.195Z,18.80
2023-04-10T10:29:55.365Z,15.57
2023-04-10T10:32:25.239Z,16.37
2023-04-10T10:34:53.906Z,14.53
2023-04-10T10:37:22.220Z,19.80
2023-04-10T10:39:58.634Z,15.43
2023-04-10T10:42:34.058Z,15.27
2023-04-10T10:45:11.362Z,20.57
2023-04-10T10:47:44.938Z,18.27
2023-04-10T10:50:12.935Z,16.37
2023-04-10T10:52:46.464Z,16.03
2023-04-10T10:55:38.446Z,14.53
2023-04-10T10:58:08.169Z,17.03
2023-04-10T11:01:18.843Z,14.50
2023-04-10T11:03:48.518Z,15.60
2023-04-10T11:06:19.430Z,14.93
2023-04-10T11:08:48.468Z,14.40
2023-04-10T11:11:18.607Z,14.47
2023-04-10T11:14:20.273Z,12.50
2023-04-10T11:16:48.840Z,12.73
2023-04-10T11:19:22.651Z,15.90
2023-04-10T11:22:07.342Z,15.93
2023-04-10T11:25:01.817Z,15.73
2023-04-10T11:27:46.262Z,15.23
2023-04-10T11:30:28.158Z,13.07
2023-04-10T11:32:56.454Z,14.00
2023-04-10T11:35:27.051Z,12.40
2023-04-10T11:38:09.993Z,12.57
2023-04-10T11:40:54.782Z,13.10
2023-04-10T11:43:22.818Z,13.80
2023-04-10T11:45:50.937Z,14.10
2023-04-10T11:48:19.041Z,14.87
2023-04-10T11:50:48.369Z,12.17
2023-04-10T11:53:20.258Z,14.07
2023-04-10T11:55:48.276Z,14.87
2023-04-10T11:58:23.966Z,13.30
2023-04-10T12:01:02.697Z,14.93
2023-04-10T12:03:35.766Z,13.53
2023-04-10T12:06:07.529Z,11.17
2023-04-10T12:08:36.613Z,11.57
2023-04-10T12:11:04.565Z,11.63
2023-04-10T12:13:33.077Z,11.90
2023-04-10T12:16:02.294Z,11.30
2023-04-10T12:18:30.889Z,11.50
2023-04-10T12:20:59.781Z,11.57
2023-04-10T12:23:31.042Z,14.27
2023-04-10T12:26:13.779Z,10.83
2023-04-10T12:28:43.452Z,10.90
2023-04-10T12:31:11.674Z,12.63
2023-04-10T12:33:40.609Z,11.77
2023-04-10T12:36:21.377Z,15.37
2023-04-10T12:38:50.780Z,13.00
2023-04-10T12:41:24.466Z,11.90
2023-04-10T12:43:54.112Z,12.73
2023-04-10T12:46:26.137Z,12.60
2023-04-10T12:48:54.359Z,11.77
2023-04-10T12:51:43.303Z,11.70
2023-04-10T12:54:13.214Z,11.73
2023-04-10T12:56:45.802Z,13.60
2023-04-10T12:59:13.638Z,11.57
2023-04-10T13:01:41.712Z,11.67
2023-04-10T13:04:09.795Z,12.60
2023-04-10T13:06:43.995Z,9.83
2023-04-10T13:09:13.546Z,11.93
2023-04-10T13:11:41.756Z,13.50
2023-04-10T13:14:11.145Z,11.53
2023-04-10T13:16:39.200Z,10.10
2023-04-10T13:19:07.212Z,10.40
2023-04-10T13:21:35.129Z,10.80
2023-04-10T13:24:03.202Z,11.70
2023-04-10T13:26:32.558Z,12.97
2023-04-10T13:29:00.466Z,14.30
2023-04-10T13:31:30.925Z,10.30
2023-04-10T13:33:58.891Z,12.10
2023-04-10T13:36:27.362Z,11.53
2023-04-10T13:38:55.522Z,11.00
2023-04-10T13:41:24.392Z,9.60
2023-04-10T13:43:53.961Z,14.23
2023-04-10T13:46:22.213Z,10.60
2023-04-10T13:48:50.186Z,10.17
2023-04-10T13:51:18.570Z,11.40
2023-04-10T13:53:46.434Z,9.73
2023-04-10T13:56:14.443Z,8.23
2023-04-10T13:58:42.328Z,11.00
2023-04-10T14:01:12.419Z,10.70
2023-04-10T14:03:40.528Z,10.00
2023-04-10T14:06:11.029Z,11.33
2023-04-10T14:08:39.071Z,9.50
2023-04-10T14:11:07.671Z,9.53
2023-04-10T14:13:35.631Z,10.60
2023-04-10T14:16:04.191Z,9.43
2023-04-10T14:18:33.578Z,9.73
2023-04-10T14:21:01.523Z,9.17
2023-04-10T14:23:29.444Z,9.70
2023-04-10T14:25:57.299Z,11.07
2023-04-10T14:28:25.234Z,9.90
2023-04-10T14:30:53.188Z,9.27
2023-04-10T14:33:21.573Z,8.47
2023-04-10T14:35:50.931Z,10.00
2023-04-10T14:38:18.966Z,11.63
2023-04-10T14:40:50.031Z,9.90
2023-04-10T14:43:19.437Z,11.03
2023-04-10T14:45:47.670Z,11.10
2023-04-10T14:48:15.979Z,8.70
2023-04-10T14:50:44.026Z,8.87
2023-04-10T14:53:13.332Z,8.33
2023-04-10T14:55:41.269Z,10.17
2023-04-10T14:58:11.098Z,9.73
2023-04-10T15:00:39.105Z,10.33
2023-04-10T15:03:08.684Z,11.27
2023-04-10T15:05:36.981Z,10.53
2023-04-10T15:08:05.069Z,10.33
2023-04-10T15:10:34.352Z,11.53
2023-04-10T15:13:02.243Z,7.90
2023-04-10T15:15:30.147Z,9.07
2023-04-10T15:17:58.230Z,10.83
2023-04-10T15:20:26.236Z,8.10
2023-04-10T15:22:54.358Z,9.63
2023-04-10T15:25:22.291Z,10.07
2023-04-10T15:27:51.540Z,10.73
2023-04-10T15:30:19.556Z,9.33
2023-04-10T15:32:47.521Z,10.30
2023-04-10T15:35:15.418Z,10.57
2023-04-10T15:37:43.411Z,9.90
2023-04-10T15:40:11.790Z,9.33
2023-04-10T15:42:39.731Z,11.03
2023-04-10T15:45:09.385Z,8.47
2023-04-10T15:47:37.349Z,10.73
2023-04-10T15:50:05.982Z,9.60
2023-04-10T15:52:33.943Z,9.57
2023-04-10T15:55:01.954Z,10.20
2023-04-10T15:57:29.917Z,13.20
2023-04-10T16:00:00.415Z,9.50
2023-04-10T16:02:29.886Z,11.47
2023-04-10T16:04:59.424Z,8.87
2023-04-10T16:07:27.411Z,10.07
2023-04-10T16:09:56.715Z,9.40
2023-04-10T16:12:24.608Z,9.57
2023-04-10T16:14:52.559Z,10.57
2023-04-10T16:17:20.436Z,10.00
2023-04-10T16:19:49.692Z,11.63
2023-04-10T16:22:17.534Z,10.77
2023-04-10T16:24:45.540Z,10.47
2023-04-10T16:27:13.515Z,9.43
2023-04-10T16:29:41.518Z,10.37
2023-04-10T16:32:09.415Z,11.47
2023-04-10T16:34:37.389Z,9.57
2023-04-10T16:37:06.782Z,9.20
2023-04-10T16:39:34.738Z,10.73
2023-04-10T16:42:03.600Z,11.20
2023-04-10T16:44:31.698Z,9.80
2023-04-10T16:46:59.781Z,8.90
2023-04-10T16:49:27.760Z,9.43
2023-04-10T16:51:55.728Z,12.00
2023-04-10T16:54:24.964Z,12.07
2023-04-10T16:56:52.927Z,10.77
2023-04-10T16:59:20.790Z,13.13
2023-04-10T17:01:48.731Z,10.83
2023-04-10T17:04:18.051Z,12.23
2023-04-10T17:06:46.140Z,11.27
2023-04-10T17:09:14.119Z,11.23
2023-04-10T17:11:43.530Z,14.37
2023-04-10T17:14:13.369Z,18.97
2023-04-10T17:16:41.423Z,13.07
2023-04-10T17:19:09.375Z,11.53
2023-04-10T17:21:37.331Z,12.70
2023-04-10T17:24:05.441Z,10.37
2023-04-10T17:26:33.465Z,11.73
2023-04-10T17:29:02.690Z,10.40
2023-04-10T17:31:31.392Z,14.00
2023-04-10T17:33:59.407Z,11.47
2023-04-10T17:36:27.955Z,15.80
2023-04-10T17:38:56.048Z,12.00
2023-04-10T17:41:24.341Z,14.97
2023-04-10T17:43:52.245Z,11.10
2023-04-10T17:46:21.554Z,13.20
2023-04-10T17:48:49.487Z,13.60
2023-04-10T17:51:17.391Z,15.40
2023-04-10T17:53:46.194Z,16.00
2023-04-10T17:56:19.625Z,14.30
2023-04-10T17:58:47.952Z,15.30
2023-04-10T18:01:23.778Z,12.43
2023-04-10T18:03:52.014Z,11.70
2023-04-10T18:06:20.032Z,15.70
2023-04-10T18:08:47.945Z,13.70
2023-04-10T18:11:15.980Z,15.27
2023-04-10T18:13:43.872Z,13.27
2023-04-10T18:16:12.022Z,14.57
2023-04-10T18:18:41.929Z,15.20
2023-04-10T18:21:10.431Z,17.53
2023-04-10T18:23:39.540Z,13.57
2023-04-10T18:26:08.157Z,14.97
2023-04-10T18:28:37.764Z,13.00
2023-04-10T18:31:06.448Z,13.07
2023-04-10T18:33:34.753Z,15.17
2023-04-10T18:36:03.992Z,15.33
2023-04-10T18:38:31.906Z,14.00
2023-04-10T18:40:59.810Z,18.67
2023-04-10T18:43:28.390Z,16.17
2023-04-10T18:45:56.654Z,13.43
2023-04-10T18:48:24.616Z,14.63
2023-04-10T18:50:53.707Z,16.87
2023-04-10T18:53:23.388Z,15.13
2023-04-10T18:55:52.528Z,17.10
2023-04-10T18:58:21.068Z,15.63
2023-04-10T19:00:49.276Z,15.70
2023-04-10T19:03:17.480Z,16.50
2023-04-10T19:05:45.731Z,20.53
2023-04-10T19:08:14.527Z,15.33
2023-04-10T19:10:43.989Z,20.07
2023-04-10T19:13:13.321Z,16.57
2023-04-10T19:15:43.203Z,22.67
2023-04-10T19:18:13.044Z,32.03
2023-04-10T19:20:52.505Z,46.40
2023-04-10T19:23:21.821Z,28.90
2023-04-10T19:25:54.341Z,22.70
2023-04-10T19:28:24.001Z,19.80
2023-04-10T19:30:52.267Z,18.00
2023-04-10T19:33:20.430Z,18.07
2023-04-10T19:35:48.633Z,17.07
2023-04-10T19:38:16.640Z,17.33
2023-04-10T19:40:45.365Z,20.50
2023-04-10T19:43:14.710Z,17.20
2023-04-10T19:45:42.876Z,22.67
2023-04-10T19:48:11.924Z,19.27
2023-04-10T19:50:39.854Z,23.10
2023-04-10T19:53:07.863Z,18.80
2023-04-10T19:55:36.097Z,19.10
2023-04-10T19:58:04.040Z,20.53
2023-04-10T20:00:33.307Z,18.57
2023-04-10T20:03:01.479Z,21.07
2023-04-10T20:05:30.340Z,20.47
2023-04-10T20:07:58.260Z,17.87
2023-04-10T20:10:26.255Z,23.17
2023-04-10T20:12:54.080Z,20.97
2023-04-10T20:15:21.988Z,22.70
2023-04-10T20:17:51.275Z,24.23
2023-04-10T20:20:19.213Z,23.57
2023-04-10T20:22:47.119Z,23.03
2023-04-10T20:25:14.985Z,21.67
2023-04-10T20:27:42.873Z,20.97
2023-04-10T20:30:11.439Z,20.97
2023-04-10T20:32:39.393Z,21.40
2023-04-10T20:35:10.397Z,21.33
2023-04-10T20:37:38.250Z,25.27
2023-04-10T20:40:07.322Z,22.10
2023-04-10T20:42:35.215Z,23.40
2023-04-10T20:45:03.527Z,22.40
2023-04-10T20:47:31.603Z,22.30
2023-04-10T20:49:59.579Z,27.17
2023-04-10T20:52:28.874Z,21.50
2023-04-10T20:54:56.764Z,25.40
2023-04-10T20:57:24.730Z,26.47
2023-04-10T20:59:52.608Z,25.67
2023-04-10T21:02:20.651Z,24.90
2023-04-10T21:04:48.620Z,27.43
2023-04-10T21:07:16.475Z,25.37
2023-04-10T21:09:45.768Z,25.60
2023-04-10T21:12:13.764Z,24.87
2023-04-10T21:14:41.678Z,26.23
2023-04-10T21:17:09.597Z,22.97
2023-04-10T21:19:37.489Z,32.57
2023-04-10T21:22:05.464Z,25.23
2023-04-10T21:24:33.339Z,25.77
2023-04-10T21:27:02.687Z,24.43
2023-04-10T21:29:30.605Z,25.10
2023-04-10T21:31:58.528Z,27.77
2023-04-10T21:34:26.510Z,23.67
2023-04-10T21:36:55.410Z,25.10
2023-04-10T21:39:23.341Z,23.17
2023-04-10T21:41:51.152Z,26.43
2023-04-10T21:44:21.071Z,26.30
2023-04-10T21:46:48.910Z,26.80
2023-04-10T21:49:16.848Z,24.70
2023-04-10T21:51:44.806Z,23.13
2023-04-10T21:54:12.740Z,23.97
2023-04-10T21:56:41.383Z,27.83
2023-04-10T21:59:09.242Z,25.13
2023-04-10T22:01:41.513Z,24.93
2023-04-10T22:04:09.591Z,23.67
2023-04-10T22:06:38.588Z,26.83
2023-04-10T22:09:06.472Z,23.40
2023-04-10T22:11:36.021Z,24.63
2023-04-10T22:14:15.795Z,28.00
2023-04-10T22:16:45.725Z,26.43
2023-04-10T22:19:13.647Z,27.53
2023-04-10T22:21:41.569Z,23.10
2023-04-10T22:24:09.626Z,25.20
2023-04-10T22:26:37.505Z,26.70
2023-04-10T22:29:05.452Z,25.90
2023-04-10T22:31:33.323Z,29.07
2023-04-10T22:34:02.545Z,26.50
2023-04-10T22:36:33.319Z,25.57
2023-04-10T22:39:01.281Z,25.07
2023-04-10T22:41:29.281Z,28.57
2023-04-10T22:43:57.299Z,27.00
2023-04-10T22:46:25.353Z,27.07
2023-04-10T22:48:54.918Z,30.53
2023-04-10T22:51:24.412Z,24.83
2023-04-10T22:53:52.251Z,29.53
2023-04-10T22:56:24.898Z,26.53
2023-04-10T22:58:53.417Z,26.30
2023-04-10T23:01:21.541Z,28.77
2023-04-10T23:03:52.834Z,27.93
2023-04-10T23:06:21.184Z,28.70
2023-04-10T23:08:52.174Z,29.80
2023-04-10T23:11:20.221Z,28.53
2023-04-10T23:13:48.810Z,29.03
2023-04-10T23:16:16.757Z,26.03
2023-04-10T23:18:44.825Z,27.70
2023-04-10T23:21:12.765Z,27.73
2023-04-10T23:23:40.758Z,25.90
2023-04-10T23:26:11.296Z,29.90
2023-04-10T23:28:39.230Z,26.57
2023-04-10T23:31:09.048Z,26.40
2023-04-10T23:33:37.130Z,27.70
2023-04-10T23:36:05.818Z,25.30
2023-04-10T23:38:33.899Z,23.73
2023-04-10T23:41:02.945Z,32.10
2023-04-10T23:43:32.291Z,23.50
2023-04-10T23:46:00.301Z,27.27
2023-04-10T23:48:28.228Z,28.80
2023-04-10T23:51:04.303Z,28.10
2023-04-10T23:53:32.383Z,23.23
2023-04-10T23:56:00.302Z,25.43
2023-04-10T23:58:28.312Z,25.03
